Terminal Aerodrome Forecast
Issued by NWS Huntsville, AL

Home | Current Version | Previous Version | Text Only | Print | Product List | Glossary On
Versions: 1 2 3 4 5 6 7 8 9 10 11 12 13 14 15 16 17 18 19 20 21 22 23 24 25
000
FTUS44 KHUN 291136
TAFMSL
TAF
KMSL 291136Z 2912/3012 17009KT P6SM -RA SCT090 BKN250
     FM291400 19012KT P6SM -RA SCT025 BKN050 OVC100
     FM292000 27010KT P6SM BKN030
     FM300000 31009KT P6SM BKN015=

USA.gov is the U.S. government's official web portal to all federal, state and local government web resources and services.